TAF/METAR LISTING

Current time:11/28/20:15 Z
Looking Back to:11/28/20:15 Z, going back 0 hour(s)

METAR:

PAFA 281953Z 00000KT 10SM FEW160 SCT200 M20/M22 A2908 RMK AO2
SLP862 T12001222 =

______________________________________

TAF:
TAFAFA
TAF
PAFA 281730Z 2818/2924 VRB03KT P6SM SCT200
FM290600 02004KT P6SM VCSH BKN050 =